Time;durP1;ratioP1;P1;durP2;ratioP2;P2;SDS_P1;SDS_P2;PMS_P1;PMS_P2;Temp;Humidity;BMP_temperature;BMP_pressure;BME280_temperature;BME280_humidity;BME280_pressure;Samples;Min_cycle;Max_cycle;Signal;HPM_P1;HPM_P2
2024/04/18 00:00:16;;;;;;;0.50;0.50;;;;;;;;;;5529644;26;20232;-79
2024/04/18 00:02:42;;;;;;;1.03;0.83;;;;;;;;;;5498394;26;20294;-79
2024/04/18 00:05:10;;;;;;;0.63;0.63;;;;;;;;;;5511666;26;20287;-79
2024/04/18 00:07:36;;;;;;;0.80;0.80;;;;;;;;;;5494166;26;20237;-79
2024/04/18 00:10:04;;;;;;;1.20;0.93;;;;;;;;;;5529395;26;20343;-79
2024/04/18 00:12:30;;;;;;;1.40;1.10;;;;;;;;;;5502891;26;20273;-80
2024/04/18 00:15:01;;;;;;;0.63;0.63;;;;;;;;;;5509261;25;20237;-80
2024/04/18 00:17:28;;;;;;;1.10;1.00;;;;;;;;;;5497074;26;20923;-80
2024/04/18 00:19:57;;;;;;;2.00;1.77;;;;;;;;;;5529178;26;20722;-80
2024/04/18 00:22:23;;;;;;;2.87;1.07;;;;;;;;;;5498437;26;20324;-80
2024/04/18 00:24:51;;;;;;;1.27;0.70;;;;;;;;;;5509935;26;20237;-80
2024/04/18 00:27:17;;;;;;;1.17;1.07;;;;;;;;;;5495225;26;20688;-81
2024/04/18 00:29:46;;;;;;;0.60;0.60;;;;;;;;;;5529125;26;20236;-81
2024/04/18 00:32:15;;;;;;;2.53;0.90;;;;;;;;;;5526713;26;20574;-81
2024/04/18 00:34:44;;;;;;;2.17;0.80;;;;;;;;;;5506643;26;20253;-81
2024/04/18 00:37:09;;;;;;;0.43;0.40;;;;;;;;;;5489527;26;20285;-82
2024/04/18 00:39:38;;;;;;;1.77;1.10;;;;;;;;;;5515590;26;20244;-81
2024/04/18 00:42:04;;;;;;;1.20;0.60;;;;;;;;;;5526251;26;20597;-81
2024/04/18 00:44:33;;;;;;;1.97;1.13;;;;;;;;;;5507216;26;20280;-81
2024/04/18 00:46:59;;;;;;;1.90;0.80;;;;;;;;;;5499631;26;20332;-81
2024/04/18 00:49:30;;;;;;;2.17;0.73;;;;;;;;;;5504870;26;20237;-80
2024/04/18 00:51:56;;;;;;;0.80;0.80;;;;;;;;;;5505515;26;20224;-81
2024/04/18 00:54:25;;;;;;;0.63;0.60;;;;;;;;;;5492128;26;20271;-81
2024/04/18 00:56:51;;;;;;;0.53;0.53;;;;;;;;;;5526371;26;20289;-81
2024/04/18 00:59:19;;;;;;;0.60;0.60;;;;;;;;;;5528771;26;20287;-81
2024/04/18 01:01:47;;;;;;;0.60;0.60;;;;;;;;;;5526121;26;21626;-81
2024/04/18 01:04:16;;;;;;;0.53;0.53;;;;;;;;;;5528260;26;20235;-81
2024/04/18 01:06:47;;;;;;;0.60;0.60;;;;;;;;;;5511205;26;20233;-81
2024/04/18 01:09:16;;;;;;;0.60;0.60;;;;;;;;;;5517527;26;20262;-81
2024/04/18 01:11:41;;;;;;;0.80;0.80;;;;;;;;;;5511922;26;20276;-81
2024/04/18 01:14:10;;;;;;;0.50;0.50;;;;;;;;;;5495563;26;20229;-81
2024/04/18 01:16:36;;;;;;;1.10;0.50;;;;;;;;;;5510757;26;20236;-81
2024/04/18 01:19:05;;;;;;;0.73;0.70;;;;;;;;;;5497951;26;20262;-81
2024/04/18 01:21:31;;;;;;;0.80;0.80;;;;;;;;;;5505495;26;20339;-81
2024/04/18 01:24:02;;;;;;;1.00;0.60;;;;;;;;;;5499215;26;20228;-81
2024/04/18 01:26:30;;;;;;;1.67;0.53;;;;;;;;;;5525336;26;20270;-81
2024/04/18 01:28:59;;;;;;;0.63;0.47;;;;;;;;;;5510917;26;20229;-81
2024/04/18 01:31:24;;;;;;;0.50;0.50;;;;;;;;;;5511561;26;20243;-82
2024/04/18 01:33:56;;;;;;;0.50;0.50;;;;;;;;;;5527686;26;20331;-82
2024/04/18 01:36:22;;;;;;;0.50;0.50;;;;;;;;;;5525502;26;20316;-82
2024/04/18 01:38:51;;;;;;;0.50;0.50;;;;;;;;;;5527669;26;20645;-81
2024/04/18 01:41:18;;;;;;;0.50;0.50;;;;;;;;;;5502820;26;20237;-81
2024/04/18 01:43:49;;;;;;;0.53;0.53;;;;;;;;;;5511951;26;20275;-81
2024/04/18 01:46:15;;;;;;;0.50;0.50;;;;;;;;;;5502980;26;20678;-81
2024/04/18 01:48:46;;;;;;;0.47;0.47;;;;;;;;;;5502942;26;20347;-81
2024/04/18 01:51:12;;;;;;;0.43;0.43;;;;;;;;;;5524814;26;20232;-81
2024/04/18 01:53:40;;;;;;;0.40;0.40;;;;;;;;;;5527914;26;20278;-81
2024/04/18 01:56:06;;;;;;;0.50;0.50;;;;;;;;;;5524870;26;20287;-81
2024/04/18 01:58:35;;;;;;;1.20;0.47;;;;;;;;;;5506273;26;20291;-81
2024/04/18 02:01:03;;;;;;;1.60;0.50;;;;;;;;;;5520457;26;20236;-80
2024/04/18 02:03:33;;;;;;;0.50;0.50;;;;;;;;;;5506754;26;20726;-80
2024/04/18 02:05:58;;;;;;;1.20;0.40;;;;;;;;;;5524575;26;20271;-80
2024/04/18 02:08:27;;;;;;;0.57;0.57;;;;;;;;;;5526317;26;20597;-83
2024/04/18 02:10:52;;;;;;;0.50;0.50;;;;;;;;;;5524736;26;20224;-81
2024/04/18 02:13:21;;;;;;;0.50;0.50;;;;;;;;;;5505239;26;20708;-81
2024/04/18 02:15:47;;;;;;;1.93;0.40;;;;;;;;;;5515689;26;20232;-82
2024/04/18 02:18:18;;;;;;;0.50;0.50;;;;;;;;;;5494919;26;20278;-81
2024/04/18 02:20:43;;;;;;;0.37;0.37;;;;;;;;;;5487595;26;20297;-81
2024/04/18 02:23:12;;;;;;;0.50;0.50;;;;;;;;;;5488739;26;20345;-81
2024/04/18 02:25:38;;;;;;;0.40;0.40;;;;;;;;;;5487197;26;20314;-81
2024/04/18 02:28:06;;;;;;;0.40;0.40;;;;;;;;;;5498730;26;20236;-81
2024/04/18 02:30:32;;;;;;;0.50;0.50;;;;;;;;;;5524667;26;20232;-81
2024/04/18 02:33:00;;;;;;;0.40;0.40;;;;;;;;;;5520184;26;20230;-81
2024/04/18 02:35:29;;;;;;;0.30;0.30;;;;;;;;;;5506658;26;20232;-81
2024/04/18 02:37:58;;;;;;;0.83;0.50;;;;;;;;;;5492941;26;20237;-81
2024/04/18 02:40:23;;;;;;;0.40;0.40;;;;;;;;;;5514032;26;20682;-81
2024/04/18 02:42:52;;;;;;;0.50;0.50;;;;;;;;;;5530903;26;20231;-81
2024/04/18 02:45:18;;;;;;;1.00;0.50;;;;;;;;;;5506457;26;20286;-81
2024/04/18 02:47:46;;;;;;;0.50;0.50;;;;;;;;;;5519903;26;20289;-81
2024/04/18 02:50:12;;;;;;;1.03;0.70;;;;;;;;;;5511742;26;20613;-82
2024/04/18 02:52:43;;;;;;;0.57;0.57;;;;;;;;;;5506326;26;20231;-82
2024/04/18 02:55:09;;;;;;;0.40;0.40;;;;;;;;;;5525355;26;20236;-81
2024/04/18 02:57:37;;;;;;;0.53;0.53;;;;;;;;;;5506607;26;20278;-82
2024/04/18 03:00:04;;;;;;;1.30;0.87;;;;;;;;;;5528084;26;20231;-81
2024/04/18 03:02:33;;;;;;;0.73;0.57;;;;;;;;;;5509027;26;20228;-84
2024/04/18 03:04:59;;;;;;;1.10;0.60;;;;;;;;;;5503039;26;20224;-82
2024/04/18 03:07:27;;;;;;;0.70;0.70;;;;;;;;;;5510887;26;20296;-82
2024/04/18 03:09:56;;;;;;;0.57;0.57;;;;;;;;;;5503456;26;20768;-83
2024/04/18 03:12:24;;;;;;;0.57;0.57;;;;;;;;;;5505636;26;20280;-82
2024/04/18 03:14:51;;;;;;;0.50;0.50;;;;;;;;;;5505436;26;20286;-83
2024/04/18 03:17:19;;;;;;;0.57;0.57;;;;;;;;;;5530163;26;20235;-83
2024/04/18 03:19:45;;;;;;;1.00;0.50;;;;;;;;;;5524187;26;20229;-83
2024/04/18 03:22:14;;;;;;;0.60;0.60;;;;;;;;;;5509115;26;20291;-83
2024/04/18 03:24:39;;;;;;;0.67;0.67;;;;;;;;;;5494039;26;20332;-82
2024/04/18 03:27:10;;;;;;;0.70;0.70;;;;;;;;;;5530086;26;20235;-83
2024/04/18 03:29:36;;;;;;;0.70;0.70;;;;;;;;;;5512869;26;20226;-83
2024/04/18 03:32:05;;;;;;;0.80;0.80;;;;;;;;;;5497480;26;20741;-82
2024/04/18 03:34:31;;;;;;;1.20;1.10;;;;;;;;;;5508964;26;20233;-82
2024/04/18 03:37:00;;;;;;;1.13;1.13;;;;;;;;;;5520112;26;20235;-82
2024/04/18 03:39:30;;;;;;;1.23;1.13;;;;;;;;;;5507687;26;20235;-82
2024/04/18 03:41:59;;;;;;;1.43;1.33;;;;;;;;;;5520189;26;20237;-83
2024/04/18 03:44:30;;;;;;;1.60;1.10;;;;;;;;;;5489531;26;20237;-82
2024/04/18 03:46:58;;;;;;;4.13;3.70;;;;;;;;;;5499590;26;20282;-82
2024/04/18 03:49:24;;;;;;;4.67;4.27;;;;;;;;;;5508245;26;20325;-82
2024/04/18 03:51:52;;;;;;;3.70;3.40;;;;;;;;;;5516526;26;20691;-82
2024/04/18 03:54:21;;;;;;;4.93;4.53;;;;;;;;;;5513853;26;20236;-82
2024/04/18 03:56:47;;;;;;;3.17;2.97;;;;;;;;;;5514569;26;20237;-83
2024/04/18 03:59:16;;;;;;;2.07;1.97;;;;;;;;;;5493080;26;20348;-82
2024/04/18 04:01:44;;;;;;;1.90;1.80;;;;;;;;;;5490034;26;20237;-82
2024/04/18 04:04:12;;;;;;;2.40;2.00;;;;;;;;;;5492591;26;20233;-82
2024/04/18 04:06:38;;;;;;;2.40;2.20;;;;;;;;;;5505289;26;20278;-83
2024/04/18 04:09:07;;;;;;;2.23;2.03;;;;;;;;;;5505140;26;20237;-82
2024/04/18 04:11:35;;;;;;;3.60;1.87;;;;;;;;;;5526921;26;20236;-82
2024/04/18 04:14:01;;;;;;;1.87;1.77;;;;;;;;;;5507904;26;20300;-82
2024/04/18 04:16:30;;;;;;;2.00;1.90;;;;;;;;;;5502502;26;20322;-82
2024/04/18 04:18:59;;;;;;;1.77;1.57;;;;;;;;;;5517835;26;20283;-82
2024/04/18 04:21:27;;;;;;;3.27;2.97;;;;;;;;;;5529756;26;20231;-83
2024/04/18 04:23:53;;;;;;;13.17;12.07;;;;;;;;;;5527774;26;20219;-83
2024/04/18 04:26:22;;;;;;;5.10;4.70;;;;;;;;;;5530304;26;20254;-82
2024/04/18 04:28:48;;;;;;;4.40;4.00;;;;;;;;;;5525414;26;20228;-82
2024/04/18 04:31:16;;;;;;;2.73;2.53;;;;;;;;;;5529792;26;20274;-81
2024/04/18 04:33:42;;;;;;;2.60;2.40;;;;;;;;;;5527726;26;20738;-83
2024/04/18 04:36:13;;;;;;;3.00;2.80;;;;;;;;;;5512618;26;20232;-83
2024/04/18 04:38:39;;;;;;;2.60;2.13;;;;;;;;;;5527652;26;20546;-84
2024/04/18 04:41:08;;;;;;;2.93;2.37;;;;;;;;;;5530245;26;20231;-83
2024/04/18 04:43:38;;;;;;;2.50;2.30;;;;;;;;;;5527465;26;20232;-83
2024/04/18 04:46:22;;;;;;;3.50;1.97;;;;;;;;;;5562557;25;1222343;-81
2024/04/18 04:48:48;;;;;;;3.90;2.87;;;;;;;;;;5575527;25;20293;-81
2024/04/18 04:51:17;;;;;;;2.17;2.00;;;;;;;;;;5586559;25;20222;-80
2024/04/18 04:53:43;;;;;;;2.50;2.30;;;;;;;;;;5546119;25;20278;-81
2024/04/18 04:56:11;;;;;;;4.90;3.83;;;;;;;;;;5548998;25;20813;-81
2024/04/18 04:58:37;;;;;;;3.27;2.93;;;;;;;;;;5546054;25;20613;-81
2024/04/18 05:01:06;;;;;;;4.70;2.60;;;;;;;;;;5548514;25;20322;-80
2024/04/18 05:03:34;;;;;;;2.70;2.33;;;;;;;;;;5571780;25;20759;-80
2024/04/18 05:06:02;;;;;;;2.60;2.40;;;;;;;;;;5583806;25;20226;-81
2024/04/18 05:08:28;;;;;;;2.27;2.07;;;;;;;;;;5581484;25;20237;-81
2024/04/18 05:10:56;;;;;;;2.47;2.27;;;;;;;;;;5584405;25;20230;-80
2024/04/18 05:13:22;;;;;;;2.60;2.40;;;;;;;;;;5581250;25;20222;-80
2024/04/18 05:15:51;;;;;;;2.37;2.10;;;;;;;;;;5584572;25;20788;-81
2024/04/18 05:18:16;;;;;;;5.53;2.30;;;;;;;;;;5581567;25;20276;-80
2024/04/18 05:20:47;;;;;;;2.17;1.97;;;;;;;;;;5584510;25;20230;-79
2024/04/18 05:23:13;;;;;;;2.47;2.20;;;;;;;;;;5581996;25;20355;-80
2024/04/18 05:25:42;;;;;;;2.40;2.20;;;;;;;;;;5584379;25;20238;-80
2024/04/18 05:28:12;;;;;;;4.27;2.37;;;;;;;;;;5582036;25;20713;-80
2024/04/18 05:33:25;;;;;;;2.77;2.50;;;;;;;;;;5584662;25;20779;-80
2024/04/18 05:35:56;;;;;;;2.73;2.53;;;;;;;;;;5581837;25;20230;-80
2024/04/18 05:38:25;;;;;;;3.73;2.63;;;;;;;;;;5581666;25;20234;-80
2024/04/18 05:40:54;;;;;;;2.63;2.43;;;;;;;;;;5581676;25;20293;-81
2024/04/18 05:43:19;;;;;;;2.23;2.00;;;;;;;;;;5581715;25;20276;-80
2024/04/18 05:45:48;;;;;;;3.37;3.10;;;;;;;;;;5584120;25;20249;-80
2024/04/18 05:48:17;;;;;;;3.40;3.10;;;;;;;;;;5581567;25;20801;-80
2024/04/18 05:50:45;;;;;;;3.83;3.43;;;;;;;;;;5581132;25;20305;-80
2024/04/18 05:53:16;;;;;;;2.30;2.10;;;;;;;;;;5581446;25;20222;-80
2024/04/18 05:55:42;;;;;;;2.43;2.23;;;;;;;;;;5578528;25;20231;-80
2024/04/18 05:58:11;;;;;;;2.77;2.57;;;;;;;;;;5567574;25;20584;-80
2024/04/18 06:00:38;;;;;;;2.17;1.87;;;;;;;;;;5565358;25;20243;-80
2024/04/18 06:03:06;;;;;;;1.77;1.60;;;;;;;;;;5567502;25;20558;-80
2024/04/18 06:05:35;;;;;;;1.80;1.70;;;;;;;;;;5565648;25;20291;-81
2024/04/18 06:08:03;;;;;;;2.00;1.50;;;;;;;;;;5565120;25;20277;-80
2024/04/18 06:10:37;;;;;;;1.50;1.40;;;;;;;;;;5565249;25;20289;-80
2024/04/18 06:13:07;;;;;;;1.17;1.07;;;;;;;;;;5565274;25;20614;-81
2024/04/18 06:15:36;;;;;;;1.50;1.40;;;;;;;;;;5564432;25;20269;-80
2024/04/18 06:18:04;;;;;;;1.50;1.40;;;;;;;;;;5565359;25;20269;-80
2024/04/18 06:20:33;;;;;;;3.67;1.80;;;;;;;;;;5564564;25;20333;-80
2024/04/18 06:23:01;;;;;;;2.07;1.63;;;;;;;;;;5565197;25;20236;-80
2024/04/18 06:25:30;;;;;;;1.27;1.27;;;;;;;;;;5564487;25;20334;-80
2024/04/18 06:28:02;;;;;;;1.57;1.47;;;;;;;;;;5564654;25;20822;-80
2024/04/18 06:30:31;;;;;;;2.20;1.40;;;;;;;;;;5565120;25;20314;-81
2024/04/18 06:32:59;;;;;;;2.40;1.50;;;;;;;;;;5564975;25;20604;-81
2024/04/18 06:35:28;;;;;;;2.00;1.90;;;;;;;;;;5564007;25;20234;-81
2024/04/18 06:37:56;;;;;;;2.03;1.67;;;;;;;;;;5564976;25;20281;-81
2024/04/18 06:40:25;;;;;;;1.60;1.50;;;;;;;;;;5564268;25;20298;-81
2024/04/18 06:42:55;;;;;;;2.00;1.83;;;;;;;;;;5564964;25;20277;-81
2024/04/18 06:45:26;;;;;;;1.83;1.70;;;;;;;;;;5563880;25;20239;-81
2024/04/18 06:47:55;;;;;;;1.53;1.43;;;;;;;;;;5563929;25;20800;-81
2024/04/18 06:50:23;;;;;;;1.40;1.30;;;;;;;;;;5564030;25;20580;-81
2024/04/18 06:52:51;;;;;;;1.67;1.57;;;;;;;;;;5563712;25;20293;-81
2024/04/18 06:55:21;;;;;;;1.63;1.53;;;;;;;;;;5564356;25;20226;-81
2024/04/18 06:57:50;;;;;;;1.67;1.50;;;;;;;;;;5564369;25;20845;-81
2024/04/18 07:00:15;;;;;;;1.73;1.63;;;;;;;;;;5564607;25;20363;-81
2024/04/18 07:02:47;;;;;;;1.67;1.57;;;;;;;;;;5566874;25;20230;-80
2024/04/18 07:05:15;;;;;;;2.10;1.90;;;;;;;;;;5564135;25;20274;-81
2024/04/18 07:07:44;;;;;;;1.73;1.63;;;;;;;;;;5563326;25;20261;-81
2024/04/18 07:10:14;;;;;;;1.53;1.43;;;;;;;;;;5563822;25;20278;-81
2024/04/18 07:12:42;;;;;;;2.37;2.17;;;;;;;;;;5564338;25;20329;-81
2024/04/18 07:15:11;;;;;;;1.60;1.50;;;;;;;;;;5564174;25;20721;-80
2024/04/18 07:17:39;;;;;;;1.47;1.37;;;;;;;;;;5564230;25;20222;-81
2024/04/18 07:20:12;;;;;;;1.70;1.50;;;;;;;;;;5564010;25;20234;-80
2024/04/18 07:22:42;;;;;;;1.63;1.50;;;;;;;;;;5564326;25;20226;-81
2024/04/18 07:25:08;;;;;;;1.47;1.37;;;;;;;;;;5563663;25;20818;-80
2024/04/18 07:27:36;;;;;;;1.77;1.40;;;;;;;;;;5566800;25;20763;-80
2024/04/18 07:30:05;;;;;;;1.27;1.20;;;;;;;;;;5563671;25;20231;-80
2024/04/18 07:32:34;;;;;;;1.17;1.17;;;;;;;;;;5563841;25;20271;-80
2024/04/18 07:35:02;;;;;;;1.57;1.47;;;;;;;;;;5563530;25;20276;-81
2024/04/18 07:37:33;;;;;;;1.60;1.50;;;;;;;;;;5564229;25;20273;-81
2024/04/18 07:40:08;;;;;;;1.20;1.20;;;;;;;;;;5563698;25;20230;-81
2024/04/18 07:42:36;;;;;;;1.40;1.30;;;;;;;;;;5563533;25;20225;-81
2024/04/18 07:45:05;;;;;;;2.00;1.43;;;;;;;;;;5563287;25;20247;-80
2024/04/18 07:47:34;;;;;;;1.63;1.53;;;;;;;;;;5563565;25;20230;-81
2024/04/18 07:50:02;;;;;;;2.97;1.40;;;;;;;;;;5563741;25;20613;-81
2024/04/18 07:52:33;;;;;;;1.27;1.17;;;;;;;;;;5564131;25;20720;-81
2024/04/18 07:55:02;;;;;;;1.53;1.43;;;;;;;;;;5534728;25;20825;-81
2024/04/18 07:57:30;;;;;;;2.03;1.20;;;;;;;;;;5563574;25;20278;-80
2024/04/18 07:59:59;;;;;;;1.10;1.10;;;;;;;;;;5563272;25;20250;-81
2024/04/18 08:02:27;;;;;;;1.63;1.37;;;;;;;;;;5563680;25;20234;-81
2024/04/18 08:04:55;;;;;;;1.63;1.20;;;;;;;;;;5563238;25;20226;-81
2024/04/18 08:07:24;;;;;;;1.80;1.30;;;;;;;;;;5563700;25;20840;-80
2024/04/18 08:09:55;;;;;;;1.67;1.40;;;;;;;;;;5561187;25;20280;-81
2024/04/18 08:12:23;;;;;;;1.33;1.23;;;;;;;;;;5563088;25;22195;-81
2024/04/18 08:14:52;;;;;;;1.43;1.30;;;;;;;;;;5563013;25;20230;-81
2024/04/18 08:17:20;;;;;;;6.60;4.20;;;;;;;;;;5563092;25;20230;-81
2024/04/18 08:19:48;;;;;;;1.93;1.40;;;;;;;;;;5563065;25;20234;-81
2024/04/18 08:22:17;;;;;;;1.40;1.30;;;;;;;;;;5563014;25;20269;-81
2024/04/18 08:24:45;;;;;;;0.97;0.97;;;;;;;;;;5562889;25;20775;-81
2024/04/18 08:27:16;;;;;;;1.13;1.10;;;;;;;;;;5563071;25;20302;-81
2024/04/18 08:29:45;;;;;;;1.27;1.20;;;;;;;;;;5562895;25;20298;-80
2024/04/18 08:32:13;;;;;;;2.63;1.20;;;;;;;;;;5562852;25;20236;-81
2024/04/18 08:34:42;;;;;;;1.20;1.10;;;;;;;;;;5563079;25;20731;-81
2024/04/18 08:37:10;;;;;;;1.80;1.67;;;;;;;;;;5562557;25;20238;-80
2024/04/18 08:39:41;;;;;;;1.30;1.20;;;;;;;;;;5562861;25;20775;-81
2024/04/18 08:42:13;;;;;;;1.10;1.00;;;;;;;;;;5562302;25;20231;-81
2024/04/18 08:44:44;;;;;;;1.30;1.20;;;;;;;;;;5562676;25;20234;-81
2024/04/18 08:47:16;;;;;;;1.50;1.40;;;;;;;;;;5533096;25;20660;-81
2024/04/18 08:49:46;;;;;;;1.40;1.30;;;;;;;;;;5562405;25;20275;-81
2024/04/18 08:52:15;;;;;;;1.60;1.43;;;;;;;;;;5562884;25;20744;-81
2024/04/18 08:54:43;;;;;;;2.03;1.33;;;;;;;;;;5562393;25;20250;-81
2024/04/18 08:57:12;;;;;;;1.20;1.10;;;;;;;;;;5562512;25;20234;-81
2024/04/18 08:59:44;;;;;;;2.00;1.73;;;;;;;;;;5562499;25;20570;-81
2024/04/18 09:02:13;;;;;;;1.13;1.13;;;;;;;;;;5562723;25;20272;-81
2024/04/18 09:04:41;;;;;;;1.17;1.07;;;;;;;;;;5562290;25;20276;-81
2024/04/18 09:07:10;;;;;;;1.00;1.00;;;;;;;;;;5562282;25;20289;-81
2024/04/18 09:09:38;;;;;;;1.03;1.03;;;;;;;;;;5562360;25;20759;-81
2024/04/18 09:12:08;;;;;;;1.33;1.17;;;;;;;;;;5562107;25;20729;-81
2024/04/18 09:14:36;;;;;;;1.30;1.20;;;;;;;;;;5561964;25;20281;-81
2024/04/18 09:17:14;;;;;;;1.10;1.10;;;;;;;;;;5561727;25;20230;-81
2024/04/18 09:19:42;;;;;;;0.90;0.90;;;;;;;;;;5562041;25;20637;-81
2024/04/18 09:22:11;;;;;;;1.63;1.10;;;;;;;;;;5562012;25;20226;-81
2024/04/18 09:24:44;;;;;;;1.30;1.20;;;;;;;;;;5562253;25;20629;-81
2024/04/18 09:27:13;;;;;;;1.97;1.20;;;;;;;;;;5561970;25;20234;-81
2024/04/18 09:29:41;;;;;;;1.50;1.20;;;;;;;;;;5561883;25;20310;-81
2024/04/18 09:32:14;;;;;;;1.40;1.03;;;;;;;;;;5564105;25;20269;-81
2024/04/18 09:34:47;;;;;;;3.03;1.20;;;;;;;;;;5565763;25;20367;-81
2024/04/18 09:37:15;;;;;;;1.23;1.13;;;;;;;;;;5540921;25;20230;-81
2024/04/18 09:39:43;;;;;;;1.53;1.43;;;;;;;;;;5565255;25;20309;-81
2024/04/18 09:42:15;;;;;;;1.00;1.00;;;;;;;;;;5568330;25;20589;-81
2024/04/18 09:44:46;;;;;;;1.27;1.17;;;;;;;;;;5564300;25;20706;-81
2024/04/18 09:47:17;;;;;;;1.10;1.10;;;;;;;;;;5565198;25;20237;-81
2024/04/18 09:49:45;;;;;;;2.10;2.00;;;;;;;;;;5565545;25;20231;-81
2024/04/18 09:52:15;;;;;;;2.20;2.03;;;;;;;;;;5564909;25;20778;-81
2024/04/18 09:54:44;;;;;;;1.20;1.20;;;;;;;;;;5564969;25;20317;-81
2024/04/18 09:57:13;;;;;;;1.60;1.50;;;;;;;;;;5565686;25;20234;-81
2024/04/18 09:59:41;;;;;;;1.73;1.63;;;;;;;;;;5564850;25;20640;-81
2024/04/18 10:02:11;;;;;;;1.40;1.30;;;;;;;;;;5565466;25;20294;-81
2024/04/18 10:04:43;;;;;;;1.30;1.30;;;;;;;;;;5567330;25;20231;-81
2024/04/18 10:07:13;;;;;;;1.50;1.40;;;;;;;;;;5565094;25;20226;-81
2024/04/18 10:09:43;;;;;;;1.57;1.47;;;;;;;;;;5564545;25;20235;-81
2024/04/18 10:12:12;;;;;;;1.37;1.27;;;;;;;;;;5565081;25;20222;-81
2024/04/18 10:14:41;;;;;;;1.07;1.07;;;;;;;;;;5565043;25;20234;-81
2024/04/18 10:17:24;;;;;;;1.17;1.13;;;;;;;;;;5565251;25;20329;-81
2024/04/18 10:19:56;;;;;;;1.20;1.07;;;;;;;;;;5564945;25;20914;-81
2024/04/18 10:22:28;;;;;;;1.23;1.13;;;;;;;;;;5564770;25;20278;-80
2024/04/18 10:24:56;;;;;;;1.33;1.20;;;;;;;;;;5565290;25;20227;-81
2024/04/18 10:27:22;;;;;;;1.10;1.10;;;;;;;;;;5565067;25;20230;-81
2024/04/18 10:29:56;;;;;;;1.73;1.33;;;;;;;;;;5567261;25;20238;-81
2024/04/18 10:32:25;;;;;;;1.13;1.10;;;;;;;;;;5542890;25;20734;-81
2024/04/18 10:34:57;;;;;;;1.80;1.20;;;;;;;;;;5564564;25;20234;-81
2024/04/18 10:37:25;;;;;;;0.93;0.93;;;;;;;;;;5564418;25;20757;-81
2024/04/18 10:39:55;;;;;;;1.23;1.20;;;;;;;;;;5564565;25;20246;-80
2024/04/18 10:42:22;;;;;;;1.17;1.17;;;;;;;;;;5564423;25;20791;-81
2024/04/18 10:44:51;;;;;;;1.30;1.20;;;;;;;;;;5567382;25;20610;-81
2024/04/18 10:47:22;;;;;;;1.40;1.30;;;;;;;;;;5564982;25;20764;-80
2024/04/18 10:49:51;;;;;;;1.10;1.07;;;;;;;;;;5564726;25;20230;-81
2024/04/18 10:52:23;;;;;;;1.53;1.20;;;;;;;;;;5564586;25;20238;-80
2024/04/18 10:54:51;;;;;;;1.10;1.10;;;;;;;;;;5564331;25;20230;-80
2024/04/18 10:57:19;;;;;;;1.00;1.00;;;;;;;;;;5564705;25;20236;-80
2024/04/18 10:59:48;;;;;;;1.27;1.17;;;;;;;;;;5563848;25;20273;-80
2024/04/18 11:02:17;;;;;;;1.40;1.30;;;;;;;;;;5564627;25;20223;-81
2024/04/18 11:04:45;;;;;;;1.27;1.20;;;;;;;;;;5563993;25;20725;-80
2024/04/18 11:07:14;;;;;;;1.83;1.57;;;;;;;;;;5564352;25;20265;-80
2024/04/18 11:09:45;;;;;;;1.10;1.10;;;;;;;;;;5563951;25;20269;-80
2024/04/18 11:12:14;;;;;;;1.33;1.17;;;;;;;;;;5564066;25;20235;-80
2024/04/18 11:14:44;;;;;;;1.40;1.30;;;;;;;;;;5564012;25;20269;-80
2024/04/18 11:17:12;;;;;;;1.13;1.13;;;;;;;;;;5563946;25;20235;-80
2024/04/18 11:19:38;;;;;;;1.40;1.30;;;;;;;;;;5564223;25;20370;-81
2024/04/18 11:22:07;;;;;;;4.40;2.17;;;;;;;;;;5566217;25;20742;-81
2024/04/18 11:24:36;;;;;;;0.90;0.90;;;;;;;;;;5564174;25;20336;-81
2024/04/18 11:27:08;;;;;;;1.00;1.00;;;;;;;;;;5563876;25;20279;-81
2024/04/18 11:29:37;;;;;;;1.73;1.63;;;;;;;;;;5564195;25;20227;-81
2024/04/18 11:32:05;;;;;;;2.37;1.73;;;;;;;;;;5564140;25;20747;-81
2024/04/18 11:34:34;;;;;;;2.03;1.83;;;;;;;;;;5566788;25;20227;-81
2024/04/18 11:37:04;;;;;;;1.30;1.30;;;;;;;;;;5563546;25;20230;-81
2024/04/18 11:39:33;;;;;;;2.20;1.37;;;;;;;;;;5564110;25;20340;-82
2024/04/18 11:42:01;;;;;;;1.27;1.17;;;;;;;;;;5563775;25;20558;-82
2024/04/18 11:44:32;;;;;;;1.30;1.20;;;;;;;;;;5563823;25;20367;-81
2024/04/18 11:47:00;;;;;;;1.20;1.20;;;;;;;;;;5563716;25;20235;-81
2024/04/18 11:49:29;;;;;;;2.10;1.13;;;;;;;;;;5563646;25;20281;-81
2024/04/18 11:51:57;;;;;;;1.70;1.60;;;;;;;;;;5563601;25;20596;-81
2024/04/18 11:54:24;;;;;;;1.37;1.27;;;;;;;;;;5562590;25;20571;-82
2024/04/18 11:56:55;;;;;;;0.70;0.70;;;;;;;;;;5566186;25;20757;-81
2024/04/18 11:59:24;;;;;;;1.20;1.20;;;;;;;;;;5564116;25;20231;-81
2024/04/18 12:01:55;;;;;;;1.10;1.10;;;;;;;;;;5563267;25;20234;-82
2024/04/18 12:04:23;;;;;;;1.60;1.20;;;;;;;;;;5563539;25;20791;-81
2024/04/18 12:06:52;;;;;;;2.13;1.30;;;;;;;;;;5563550;25;20276;-81
2024/04/18 12:09:20;;;;;;;1.90;1.30;;;;;;;;;;5563444;25;20222;-81
2024/04/18 12:11:46;;;;;;;2.20;1.30;;;;;;;;;;5563577;25;20265;-81
2024/04/18 12:14:14;;;;;;;1.20;1.20;;;;;;;;;;5565337;25;20235;-81
2024/04/18 12:16:43;;;;;;;1.23;1.10;;;;;;;;;;5563508;25;20333;-81
2024/04/18 12:19:14;;;;;;;1.60;1.17;;;;;;;;;;5563319;25;20227;-81
2024/04/18 12:21:42;;;;;;;0.80;0.80;;;;;;;;;;5563279;25;20272;-81
2024/04/18 12:24:11;;;;;;;1.20;1.10;;;;;;;;;;5563035;25;20231;-81
2024/04/18 12:26:39;;;;;;;1.23;1.10;;;;;;;;;;5562905;25;20231;-81
2024/04/18 12:29:08;;;;;;;1.80;1.20;;;;;;;;;;5562909;25;20243;-81
2024/04/18 12:31:36;;;;;;;1.40;1.30;;;;;;;;;;5563069;25;20269;-81
2024/04/18 12:34:04;;;;;;;1.10;1.10;;;;;;;;;;5562730;25;20231;-81
2024/04/18 12:36:36;;;;;;;2.00;1.27;;;;;;;;;;5563042;25;20256;-81
2024/04/18 12:39:04;;;;;;;0.90;0.90;;;;;;;;;;5562589;25;20241;-81
2024/04/18 12:41:33;;;;;;;0.87;0.87;;;;;;;;;;5562790;25;20235;-81
2024/04/18 12:44:01;;;;;;;1.63;1.53;;;;;;;;;;5563163;25;20225;-81
2024/04/18 12:46:30;;;;;;;1.37;1.27;;;;;;;;;;5562649;25;20232;-81
2024/04/18 12:48:58;;;;;;;2.47;2.10;;;;;;;;;;5562949;25;20238;-81
2024/04/18 12:51:27;;;;;;;2.40;2.00;;;;;;;;;;5562477;25;20776;-82
2024/04/18 12:53:58;;;;;;;1.47;1.37;;;;;;;;;;5562831;25;20364;-81
2024/04/18 12:56:26;;;;;;;1.43;1.33;;;;;;;;;;5562374;25;20270;-82
2024/04/18 12:58:55;;;;;;;1.23;1.20;;;;;;;;;;5562584;25;20285;-81
2024/04/18 13:01:23;;;;;;;0.93;0.93;;;;;;;;;;5562401;25;20295;-82
2024/04/18 13:03:51;;;;;;;1.20;1.10;;;;;;;;;;5562359;25;20286;-81
2024/04/18 13:06:20;;;;;;;1.27;1.07;;;;;;;;;;5562815;25;20232;-81
2024/04/18 13:08:49;;;;;;;1.10;1.10;;;;;;;;;;5566155;25;20375;-81
2024/04/18 13:11:20;;;;;;;1.30;1.20;;;;;;;;;;5565759;25;20228;-81
2024/04/18 13:13:48;;;;;;;2.80;1.30;;;;;;;;;;5566445;25;20462;-81
2024/04/18 13:16:18;;;;;;;2.13;1.20;;;;;;;;;;5565650;25;20267;-81
2024/04/18 13:18:46;;;;;;;1.30;1.00;;;;;;;;;;5565848;25;20565;-81
2024/04/18 13:21:12;;;;;;;2.10;0.90;;;;;;;;;;5566186;25;20230;-81
2024/04/18 13:23:40;;;;;;;1.97;1.07;;;;;;;;;;5568610;25;20716;-81
2024/04/18 13:26:09;;;;;;;1.37;1.27;;;;;;;;;;5565851;25;20263;-81
2024/04/18 13:28:40;;;;;;;1.20;1.10;;;;;;;;;;5565671;25;20232;-81
2024/04/18 13:31:12;;;;;;;1.17;0.97;;;;;;;;;;5566129;25;20612;-81
2024/04/18 13:33:40;;;;;;;1.10;0.80;;;;;;;;;;5565795;25;20272;-81
2024/04/18 13:36:10;;;;;;;1.00;1.00;;;;;;;;;;5565599;25;20234;-81
2024/04/18 13:38:39;;;;;;;1.23;1.13;;;;;;;;;;5565325;25;20359;-81
2024/04/18 13:41:07;;;;;;;1.10;1.10;;;;;;;;;;5565492;25;20574;-81
2024/04/18 13:43:36;;;;;;;1.60;0.93;;;;;;;;;;5565558;25;20685;-81
2024/04/18 13:46:07;;;;;;;1.30;1.20;;;;;;;;;;5565575;25;20238;-81
2024/04/18 13:48:36;;;;;;;1.43;1.33;;;;;;;;;;5565293;25;20351;-81
2024/04/18 13:51:05;;;;;;;1.10;1.07;;;;;;;;;;5565454;25;20231;-81
2024/04/18 13:53:34;;;;;;;3.20;1.43;;;;;;;;;;5565429;25;20281;-81
2024/04/18 13:56:02;;;;;;;1.47;1.00;;;;;;;;;;5564957;25;20578;-81
2024/04/18 13:58:30;;;;;;;2.80;1.20;;;;;;;;;;5565326;25;20744;-81
2024/04/18 14:01:01;;;;;;;0.93;0.90;;;;;;;;;;5565257;25;20264;-81
2024/04/18 14:03:33;;;;;;;1.70;1.60;;;;;;;;;;5565406;25;20637;-81
2024/04/18 14:06:01;;;;;;;1.07;1.07;;;;;;;;;;5565030;25;20230;-81
2024/04/18 14:08:29;;;;;;;0.90;0.90;;;;;;;;;;5565217;25;20234;-81
2024/04/18 14:10:58;;;;;;;1.20;1.10;;;;;;;;;;5564669;25;20252;-81
2024/04/18 14:13:26;;;;;;;2.60;2.40;;;;;;;;;;5565395;25;20608;-81
2024/04/18 14:18:57;;;;;;;4.27;3.93;;;;;;;;;;5565506;25;20763;-81
2024/04/18 14:21:25;;;;;;;6.27;4.70;;;;;;;;;;5565117;25;20236;-81
2024/04/18 14:23:53;;;;;;;4.80;3.80;;;;;;;;;;5564645;25;20563;-81
2024/04/18 14:26:22;;;;;;;3.63;3.33;;;;;;;;;;5564787;25;20283;-81
2024/04/18 14:28:51;;;;;;;2.30;1.90;;;;;;;;;;5564704;25;20272;-81
2024/04/18 14:31:19;;;;;;;2.57;2.07;;;;;;;;;;5564966;25;20237;-81
2024/04/18 14:33:50;;;;;;;4.77;1.97;;;;;;;;;;5565412;25;20312;-85
2024/04/18 14:36:19;;;;;;;2.23;2.00;;;;;;;;;;5564111;25;20886;-84
2024/04/18 14:38:48;;;;;;;6.10;4.53;;;;;;;;;;5564382;25;20240;-85
2024/04/18 14:41:16;;;;;;;5.83;3.73;;;;;;;;;;5565174;25;20750;-78
2024/04/18 14:43:45;;;;;;;2.53;2.17;;;;;;;;;;5564857;25;20237;-83
2024/04/18 14:46:13;;;;;;;4.37;2.67;;;;;;;;;;5565206;25;20238;-79
2024/04/18 14:48:42;;;;;;;2.57;2.30;;;;;;;;;;5565671;25;20223;-81
2024/04/18 14:51:14;;;;;;;5.07;3.27;;;;;;;;;;5564244;25;20576;-80
2024/04/18 14:53:43;;;;;;;5.20;4.80;;;;;;;;;;5565338;25;20569;-81
2024/04/18 14:56:11;;;;;;;5.03;4.60;;;;;;;;;;5565599;25;20220;-81